Cessnock, New South Wales

9:38 AM AEST on September 02, 2015 (GMT +1000)
Aberdare | | Change Station
CLOSE
Current Station
Personal Weather Station
Location: Cessnock, N.S.W.
Elevation: 290 ft
Nearby Weather Stations

Elev 290 ft 32.84 °S, 151.37 °E | Updated 1 second ago

Scattered Clouds
Scattered Clouds
57.0 °F
Feels Like 57.0 °F
N
0.0
Wind Variable Wind from NNW
Gusts 1.0 mph

Today
High -- | Low -- °F
--% Chance of Precip.
Yesterday
High -- | Low -- °F
Precip. -- in
6:11 AM 5:37 PM
Waning Gibbous, 85% visible
Pressure 30.06 in
Visibility 6.2 miles
Clouds Few 0 ft
Scattered Clouds 20000 ft
Dew Point 46 °F
Humidity 66%
Rainfall 0.00 in
Snow Depth Not available.
UV 3 out of 12
Pollen Not available.
Air Quality Not available.
Flu Activity Not available.
METAR YWLM 012300Z 31009KT 9999 FEW000 SCT200 13/04 Q1018 NOSIG
Pressure 30.06 in
Visibility 6.2 miles
Clouds Few 0 ft
Scattered Clouds 20000 ft
Dew Point 46 °F
Humidity 66%
Rainfall 0.00 in
Snow Depth Not available.
UV 3 out of 12
Pollen Not available.
Air Quality Not available.
Flu Activity Not available.
METAR YWLM 012300Z 31009KT 9999 FEW000 SCT200 13/04 Q1018 NOSIG

10-Day Weather Forecast

×

Almanac

Astronomy

Sep. 02, 2015 Rise Set
Actual Time
Civil Twilight
Nautical Twilight
Astronomical Twilight
Moon
Length of Visible Light
Length of Day
Tomorrow will be .
, % of the Moon is Illuminated

Today's Extremes

Country Highs Country Lows

Community

WunderPhotos

Upload Photos

1,851,643 photos uploaded!

WunderBlogs® & News

Nearby

Air Quality

  Air Quality AQ Index Pollutant
Not available.

Snow Depth

Station Depth Elevation

Earthquake Activity

City Distance Mag. Time & Date
Minimum magnitude displayed is 2.5.

Coastal Water Temperatures

Place Temperature

Stations

Nearby Weather Stations

Station Location Temp. Windchill Dew Point Humidity Wind Precip. Elev Updated Type